Nearby METAR Reports

 

YSRI - Richmond (aus-Af, Australia
Distance from station: WSW 35km
Updated: 16/10/2021 07:00
Partly cloudy
Partly cloudy
 Wind from WNW
Wind: WNW 26 km/h
Temperature: 15°C
Dew Point: 6°C
Humidity: 55%
Barometer: 1002 hPa
Clouds: Partly cloudy
Visibility: 10 km
Cloud details: Partly cloudy 1829 m
2021/10/15 20:00 YSRI 152000Z AUTO 29014KT 9999 // SCT060 15/06 Q1002
YSSY - Sydney Intl Airp, Australia
Distance from station: S 47km
Updated: 16/10/2021 07:00
Partly cloudy
Partly cloudy
 Wind from NW
Wind: NW 22 km/h
Temperature: 15°C
Dew Point: 6°C
Humidity: 55%
Barometer: 1001 hPa
Clouds: Partly cloudy
Visibility: 10 km
Cloud details: Few Clouds 914 m
Partly cloudy 5486 m
2021/10/15 20:00 YSSY 152000Z 32012KT 9999 FEW030 SCT180 15/06 Q1001
 
YWLM - Williamtown Arp, Australia
Distance from station: NE 104km
Updated: 16/10/2021 07:00
Partly cloudy
Partly cloudy
 Wind from WNW
Wind: WNW 39 km/h
Temperature: 14°C
Dew Point: 7°C
Humidity: 63%
Barometer: 1004 hPa
Clouds: Partly cloudy
Visibility: 10 km
Cloud details: Partly cloudy 2591 m
2021/10/15 20:00 YWLM 152000Z AUTO 29021KT 9999 // SCT085 14/07 Q1004
YSNW - Nowra (aus-Navy), Australia
Distance from station: SSW 168km
Updated: 16/10/2021 07:00
Partly cloudy
Partly cloudy
 Wind from WNW
Wind: WNW 43 km/h, Gust: 61 km/h
Temperature: 13°C
Dew Point: 6°C
Humidity: 63%
Barometer: 999 hPa
Clouds: Partly cloudy
Visibility: 10 km
Cloud details: Partly cloudy 3658 m
2021/10/15 20:00 YSNW 152000Z AUTO 29023G33KT 9999 // SCT120 13/06 Q0999
 
YMDG - Mudgee Arpt, Australia
Distance from station: NW 177km
Updated: 16/10/2021 07:06
Mostly cloudy
Mostly cloudy
 Wind from NW
Wind: NW 11 km/h
Temperature: 8°C
Wind Chill: 6°C
Dew Point: 8°C
Humidity: 100%
Barometer: 1008 hPa
Clouds: Mostly cloudy
Visibility: 10 km
Cloud details: Partly cloudy 549 m
Mostly cloudy 671 m
2021/10/15 20:06 YMDG 152006Z AUTO 31006KT 9999 // SCT018 BKN022 08/08 Q1008
YTRE - Taree Airport, Australia
Distance from station: NE 224km
Updated: 16/10/2021 07:00
Clear
Clear
 Wind from NW
Wind: NW 15 km/h
Temperature: 15°C
Dew Point: 5°C
Humidity: 51%
Barometer: 1005 hPa
Clouds: Clear
Visibility: 10 km
2021/10/15 20:00 YTRE 152000Z AUTO 32008KT 9999 // NCD 15/05 Q1005
 
YSCB - Canberra (civ/Mi, Australia
Distance from station: SW 265km
Updated: 16/10/2021 07:00
Overcast
Overcast
 Wind from N
Wind: N 19 km/h
Temperature: 8°C
Wind Chill: 4°C
Dew Point: 6°C
Humidity: 87%
Barometer: 1002 hPa
Clouds: Overcast
Visibility: 10 km
Cloud details: Overcast 823 m
2021/10/15 20:00 YSCB 152000Z AUTO 35010KT 9999 // OVC027 08/06 Q1002
YSTW - Tamworth Airport, Australia
Distance from station: N 275km
Updated: 16/10/2021 07:00
Clear
Clear
 Wind from NNW
Wind: NNW 7 km/h
Temperature: 7°C
Wind Chill: 6°C
Dew Point: 7°C
Humidity: 100%
Barometer: 1010 hPa
Clouds: Clear
Visibility: 10 km
2021/10/15 20:00 YSTW 152000Z AUTO 33004KT 9999 // NCD 07/07 Q1010
 
YSDU - Dubbo, Australia
Distance from station: WNW 280km
Updated: 16/10/2021 07:00
Clear
Clear
 Wind from WNW
Wind: WNW 11 km/h
Temperature: 7°C
Wind Chill: 5°C
Dew Point: 7°C
Humidity: 100%
Barometer: 1010 hPa
Clouds: Clear
Visibility: 10 km
2021/10/15 20:00 YSDU 152000Z AUTO 29006KT 9999 // NCD 07/07 Q1010
YPMQ - Port Macquarie, Australia
Distance from station: NE 284km
Updated: 16/10/2021 03:26
NOT Current
Clear
Clear
 Wind from NW
Wind: NW 7 km/h
Temperature: 9°C
Wind Chill: 8°C
Dew Point: 7°C
Humidity: 87%
Barometer: 1005 hPa
Clouds: Clear
Visibility: 10 km
2021/10/15 16:26 YPMQ 151626Z AUTO 32004KT 9999 // NCD 09/07 Q1005
 
YCBB - Coonabarabran, Australia
Distance from station: NW 300km
Updated: 16/10/2021 07:00
Partly cloudy
Partly cloudy
 Wind from NW
Wind: NW 13 km/h
Temperature: 9°C
Wind Chill: 7°C
Dew Point: 6°C
Humidity: 82%
Barometer: 1010 hPa
Clouds: Partly cloudy
Visibility: 10 km
Cloud details: Partly cloudy 1250 m
2021/10/15 20:00 YCBB 152000Z AUTO 31007KT 9999 // SCT041 09/06 Q1010